Time,TemperatureF,DewpointF,PressureIn,WindDirection,WindDirectionDegrees,WindSpeedMPH,WindSpeedGustMPH,Humidity,HourlyPrecipIn,Conditions,Clouds,dailyrainin,SoftwareType,DateUTC
2013-04-06 00:00:00,54.3,35.5,30.20,NW,318,0.0,3.0,49,0.00,,,0.00,Wunderground v.1.15,2013-04-06 07:00:00,
2013-04-06 00:10:00,53.4,35.7,30.20,NW,318,0.0,3.0,51,0.00,,,0.00,Wunderground v.1.15,2013-04-06 07:10:00,
2013-04-06 00:15:00,53.1,36.4,30.20,NW,318,0.0,3.0,53,0.00,,,0.00,Wunderground v.1.15,2013-04-06 07:15:00,
2013-04-06 00:25:00,52.9,36.2,30.20,NW,318,0.0,3.0,53,0.00,,,0.00,Wunderground v.1.15,2013-04-06 07:25:00,
2013-04-06 00:35:00,53.2,36.0,30.20,NW,318,0.0,3.0,52,0.00,,,0.00,Wunderground v.1.15,2013-04-06 07:35:00,
2013-04-06 00:45:00,53.2,38.4,30.21,NW,318,0.0,2.0,57,0.00,,,0.00,Wunderground v.1.15,2013-04-06 07:45:00,
2013-04-06 00:50:00,53.2,39.2,30.20,NW,318,0.0,2.0,59,0.00,,,0.00,Wunderground v.1.15,2013-04-06 07:50:00,
2013-04-06 00:55:00,53.3,39.8,30.21,NW,318,0.0,2.0,60,0.00,,,0.00,Wunderground v.1.15,2013-04-06 07:55:00,
2013-04-06 01:00:00,53.4,39.4,30.21,NW,318,0.0,2.0,59,0.00,,,0.00,Wunderground v.1.15,2013-04-06 08:00:00,
2013-04-06 01:05:00,53.0,38.6,30.20,NW,317,0.0,2.0,58,0.00,,,0.00,Wunderground v.1.15,2013-04-06 08:05:00,
2013-04-06 01:15:00,52.1,36.9,30.20,NW,312,0.0,1.0,56,0.00,,,0.00,Wunderground v.1.15,2013-04-06 08:15:00,
2013-04-06 01:20:00,51.8,36.6,30.20,NW,312,0.0,1.0,56,0.00,,,0.00,Wunderground v.1.15,2013-04-06 08:20:00,
2013-04-06 01:30:00,51.5,37.2,30.20,West,269,3.0,4.0,58,0.00,,,0.00,Wunderground v.1.15,2013-04-06 08:30:00,
2013-04-06 01:35:00,51.8,36.6,30.20,West,269,4.0,8.0,56,0.00,,,0.00,Wunderground v.1.15,2013-04-06 08:35:00,
2013-04-06 01:40:00,51.9,36.7,30.20,West,269,2.0,2.0,56,0.00,,,0.00,Wunderground v.1.15,2013-04-06 08:40:00,
2013-04-06 01:45:00,52.2,37.0,30.20,West,269,1.0,8.0,56,0.00,,,0.00,Wunderground v.1.15,2013-04-06 08:45:00,
2013-04-06 01:50:00,52.6,37.3,30.20,West,269,0.0,8.0,56,0.00,,,0.00,Wunderground v.1.15,2013-04-06 08:50:00,
2013-04-06 02:00:00,53.3,38.4,30.19,West,267,2.0,2.0,57,0.00,,,0.00,Wunderground v.1.15,2013-04-06 09:00:00,
2013-04-06 02:05:00,53.9,38.6,30.19,West,267,2.0,7.0,56,0.00,,,0.00,Wunderground v.1.15,2013-04-06 09:05:00,
2013-04-06 02:15:00,53.8,39.4,30.20,West,267,0.0,7.0,58,0.00,,,0.00,Wunderground v.1.15,2013-04-06 09:15:00,
2013-04-06 02:20:00,53.7,39.7,30.20,West,267,0.0,7.0,59,0.00,,,0.00,Wunderground v.1.15,2013-04-06 09:20:00,
2013-04-06 02:30:00,53.2,39.7,30.20,West,267,0.0,7.0,60,0.00,,,0.00,Wunderground v.1.15,2013-04-06 09:30:00,
2013-04-06 02:35:00,52.9,39.8,30.19,West,267,0.0,7.0,61,0.00,,,0.00,Wunderground v.1.15,2013-04-06 09:35:00,
2013-04-06 02:45:00,51.7,38.7,30.19,West,267,0.0,0.0,61,0.00,,,0.00,Wunderground v.1.15,2013-04-06 09:45:00,
2013-04-06 02:50:00,51.2,38.6,30.19,West,267,0.0,0.0,62,0.00,,,0.00,Wunderground v.1.15,2013-04-06 09:50:00,
2013-04-06 03:00:00,50.8,36.5,30.19,West,267,0.0,0.0,58,0.00,,,0.00,Wunderground v.1.15,2013-04-06 10:00:00,
2013-04-06 03:05:00,50.7,35.6,30.19,West,267,0.0,3.0,56,0.00,,,0.00,Wunderground v.1.15,2013-04-06 10:05:00,
2013-04-06 03:15:00,50.4,34.8,30.19,West,267,0.0,3.0,55,0.00,,,0.00,Wunderground v.1.15,2013-04-06 10:15:00,
2013-04-06 03:25:00,50.8,33.3,30.19,West,267,0.0,3.0,51,0.00,,,0.00,Wunderground v.1.15,2013-04-06 10:25:00,
2013-04-06 03:30:00,51.2,32.2,30.19,West,267,0.0,3.0,48,0.00,,,0.00,Wunderground v.1.15,2013-04-06 10:30:00,
2013-04-06 03:35:00,51.4,31.3,30.19,West,267,0.0,5.0,46,0.00,,,0.00,Wunderground v.1.15,2013-04-06 10:35:00,
2013-04-06 03:45:00,50.6,31.1,30.19,West,267,0.0,5.0,47,0.00,,,0.00,Wunderground v.1.15,2013-04-06 10:45:00,
2013-04-06 03:50:00,50.7,30.7,30.19,West,267,0.0,5.0,46,0.00,,,0.00,Wunderground v.1.15,2013-04-06 10:50:00,
2013-04-06 04:00:00,51.8,29.4,30.19,West,267,1.0,1.0,42,0.00,,,0.00,Wunderground v.1.15,2013-04-06 11:00:00,
2013-04-06 04:05:00,52.0,29.0,30.19,West,267,1.0,5.0,41,0.00,,,0.00,Wunderground v.1.15,2013-04-06 11:05:00,
2013-04-06 04:15:00,52.4,28.1,30.19,West,267,1.0,5.0,39,0.00,,,0.00,Wunderground v.1.15,2013-04-06 11:15:00,
2013-04-06 04:20:00,52.2,30.4,30.19,SW,228,2.0,5.0,43,0.00,,,0.00,Wunderground v.1.15,2013-04-06 11:20:00,
2013-04-06 04:30:00,52.0,31.3,30.19,SW,228,1.0,1.0,45,0.00,,,0.00,Wunderground v.1.15,2013-04-06 11:30:00,
2013-04-06 04:35:00,51.8,31.1,30.19,SW,228,1.0,9.0,45,0.00,,,0.00,Wunderground v.1.15,2013-04-06 11:35:00,
2013-04-06 04:40:00,51.6,29.2,30.19,SW,228,1.0,1.0,42,0.00,,,0.00,Wunderground v.1.15,2013-04-06 11:40:00,
2013-04-06 04:45:00,51.5,27.3,30.19,SW,228,0.0,9.0,39,0.00,,,0.00,Wunderground v.1.15,2013-04-06 11:45:00,
2013-04-06 04:50:00,51.2,26.4,30.19,SW,224,1.0,9.0,38,0.00,,,0.00,Wunderground v.1.15,2013-04-06 11:50:00,
2013-04-06 05:00:00,51.0,34.5,30.19,SW,224,1.0,1.0,53,0.00,,,0.00,Wunderground v.1.15,2013-04-06 12:00:00,
2013-04-06 05:05:00,51.2,36.0,30.19,SW,224,0.0,6.0,56,0.00,,,0.00,Wunderground v.1.15,2013-04-06 12:05:00,
2013-04-06 05:15:00,50.8,36.1,30.19,SW,224,0.0,6.0,57,0.00,,,0.00,Wunderground v.1.15,2013-04-06 12:15:00,
2013-04-06 05:20:00,50.4,35.7,30.20,SW,224,0.0,6.0,57,0.00,,,0.00,Wunderground v.1.15,2013-04-06 12:20:00,
2013-04-06 05:30:00,49.0,27.5,30.20,SW,224,0.0,6.0,43,0.00,,,0.00,Wunderground v.1.15,2013-04-06 12:30:00,
2013-04-06 05:35:00,48.1,27.7,30.20,SW,224,0.0,6.0,45,0.00,,,0.00,Wunderground v.1.15,2013-04-06 12:35:00,
2013-04-06 05:45:00,47.2,30.5,30.20,SW,224,0.0,0.0,52,0.00,,,0.00,Wunderground v.1.15,2013-04-06 12:45:00,
2013-04-06 05:50:00,47.6,30.3,30.20,SW,224,1.0,1.0,51,0.00,,,0.00,Wunderground v.1.15,2013-04-06 12:50:00,
2013-04-06 06:00:00,47.6,28.9,30.20,SW,224,0.0,0.0,48,0.00,,,0.00,Wunderground v.1.15,2013-04-06 13:00:00,
2013-04-06 06:05:00,47.5,27.2,30.20,SW,224,0.0,5.0,45,0.00,,,0.00,Wunderground v.1.15,2013-04-06 13:05:00,
2013-04-06 06:15:00,48.5,23.4,30.20,SW,224,0.0,5.0,37,0.00,,,0.00,Wunderground v.1.15,2013-04-06 13:15:00,
2013-04-06 06:20:00,49.5,24.9,30.20,SW,224,0.0,5.0,38,0.00,,,0.00,Wunderground v.1.15,2013-04-06 13:20:00,
2013-04-06 06:30:00,49.2,25.3,30.21,SW,224,0.0,5.0,39,0.00,,,0.00,Wunderground v.1.15,2013-04-06 13:30:00,
2013-04-06 06:35:00,48.3,26.2,30.22,SW,224,0.0,5.0,42,0.00,,,0.00,Wunderground v.1.15,2013-04-06 13:35:00,
2013-04-06 06:45:00,47.2,28.0,30.22,SW,224,0.0,3.0,47,0.00,,,0.00,Wunderground v.1.15,2013-04-06 13:45:00,
2013-04-06 06:50:00,47.0,30.3,30.22,SW,224,0.0,3.0,52,0.00,,,0.00,Wunderground v.1.15,2013-04-06 13:50:00,
2013-04-06 07:00:00,47.7,31.9,30.22,SW,224,0.0,3.0,54,0.00,,,0.00,Wunderground v.1.15,2013-04-06 14:00:00,
2013-04-06 07:05:00,48.3,32.4,30.23,SW,224,0.0,3.0,54,0.00,,,0.00,Wunderground v.1.15,2013-04-06 14:05:00,
2013-04-06 07:15:00,49.3,32.9,30.23,SW,224,0.0,3.0,53,0.00,,,0.00,Wunderground v.1.15,2013-04-06 14:15:00,
2013-04-06 07:20:00,50.0,32.6,30.23,SW,224,0.0,3.0,51,0.00,,,0.00,Wunderground v.1.15,2013-04-06 14:20:00,
2013-04-06 07:30:00,51.5,31.9,30.24,SW,224,0.0,3.0,47,0.00,,,0.00,Wunderground v.1.15,2013-04-06 14:30:00,
2013-04-06 07:35:00,52.5,31.8,30.24,SW,224,1.0,4.0,45,0.00,,,0.00,Wunderground v.1.15,2013-04-06 14:35:00,
2013-04-06 07:45:00,54.0,28.9,30.24,SW,224,0.0,4.0,38,0.00,,,0.00,Wunderground v.1.15,2013-04-06 14:45:00,
2013-04-06 07:50:00,55.3,26.7,30.24,SW,224,0.0,4.0,33,0.00,,,0.00,Wunderground v.1.15,2013-04-06 14:50:00,
2013-04-06 08:00:00,57.0,28.1,30.24,SW,224,0.0,4.0,33,0.00,,,0.00,Wunderground v.1.15,2013-04-06 15:00:00,
2013-04-06 08:05:00,57.9,26.6,30.25,SW,224,0.0,4.0,30,0.00,,,0.00,Wunderground v.1.15,2013-04-06 15:05:00,
2013-04-06 08:15:00,60.0,26.8,30.25,SW,224,0.0,1.0,28,0.00,,,0.00,Wunderground v.1.15,2013-04-06 15:15:00,
2013-04-06 08:20:00,60.3,27.0,30.25,SW,224,1.0,1.0,28,0.00,,,0.00,Wunderground v.1.15,2013-04-06 15:20:00,
2013-04-06 08:25:00,60.7,27.4,30.25,SW,224,0.0,1.0,28,0.00,,,0.00,Wunderground v.1.15,2013-04-06 15:25:00,
2013-04-06 08:35:00,61.5,26.3,30.25,SW,224,0.0,4.0,26,0.00,,,0.00,Wunderground v.1.15,2013-04-06 15:35:00,
2013-04-06 08:40:00,61.8,26.5,30.25,SW,224,0.0,4.0,26,0.00,,,0.00,Wunderground v.1.15,2013-04-06 15:40:00,
2013-04-06 08:45:00,61.9,25.7,30.25,SW,224,0.0,4.0,25,0.00,,,0.00,Wunderground v.1.15,2013-04-06 15:45:00,
2013-04-06 08:50:00,62.1,25.8,30.25,SW,224,0.0,4.0,25,0.00,,,0.00,Wunderground v.1.15,2013-04-06 15:50:00,
2013-04-06 09:00:00,62.7,26.3,30.25,SW,224,0.0,4.0,25,0.00,,,0.00,Wunderground v.1.15,2013-04-06 16:00:00,
2013-04-06 09:05:00,62.7,26.3,30.25,SW,224,1.0,4.0,25,0.00,,,0.00,Wunderground v.1.15,2013-04-06 16:05:00,
2013-04-06 09:15:00,63.3,26.8,30.25,SW,224,0.0,4.0,25,0.00,,,0.00,Wunderground v.1.15,2013-04-06 16:15:00,
2013-04-06 09:20:00,63.4,26.9,30.25,SW,224,1.0,4.0,25,0.00,,,0.00,Wunderground v.1.15,2013-04-06 16:20:00,
2013-04-06 09:30:00,63.1,26.7,30.25,South,173,4.0,4.0,25,0.00,,,0.00,Wunderground v.1.15,2013-04-06 16:30:00,
2013-04-06 09:35:00,63.6,27.1,30.25,South,173,3.0,8.0,25,0.00,,,0.00,Wunderground v.1.15,2013-04-06 16:35:00,
2013-04-06 09:45:00,64.5,26.9,30.26,South,175,4.0,8.0,24,0.00,,,0.00,Wunderground v.1.15,2013-04-06 16:45:00,
2013-04-06 09:50:00,65.0,26.3,30.26,South,176,2.0,2.0,23,0.00,,,0.00,Wunderground v.1.15,2013-04-06 16:50:00,
2013-04-06 10:00:00,65.2,26.4,30.26,South,169,1.0,1.0,23,0.00,,,0.00,Wunderground v.1.15,2013-04-06 17:00:00,
2013-04-06 10:05:00,65.7,26.9,30.26,South,169,1.0,8.0,23,0.00,,,0.00,Wunderground v.1.15,2013-04-06 17:05:00,
2013-04-06 10:15:00,66.8,26.7,30.26,South,169,0.0,8.0,22,0.00,,,0.00,Wunderground v.1.15,2013-04-06 17:15:00,
2013-04-06 10:20:00,67.1,28.0,30.26,South,169,1.0,1.0,23,0.00,,,0.00,Wunderground v.1.15,2013-04-06 17:20:00,
2013-04-06 10:30:00,66.7,27.7,30.26,SE,138,3.0,8.0,23,0.00,,,0.00,Wunderground v.1.15,2013-04-06 17:30:00,
2013-04-06 10:35:00,67.0,27.9,30.26,SE,139,3.0,10.0,23,0.00,,,0.00,Wunderground v.1.15,2013-04-06 17:35:00,
2013-04-06 10:45:00,67.6,27.4,30.26,SSE,147,3.0,10.0,22,0.00,,,0.00,Wunderground v.1.15,2013-04-06 17:45:00,
2013-04-06 10:50:00,68.0,27.7,30.26,SSE,159,2.0,10.0,22,0.00,,,0.00,Wunderground v.1.15,2013-04-06 17:50:00,
2013-04-06 10:55:00,68.2,27.9,30.26,SSE,163,2.0,10.0,22,0.00,,,0.00,Wunderground v.1.15,2013-04-06 17:55:00,
2013-04-06 11:00:00,68.4,28.0,30.26,South,173,4.0,4.0,22,0.00,,,0.00,Wunderground v.1.15,2013-04-06 18:00:00,
2013-04-06 11:10:00,69.4,26.6,30.26,SSE,147,4.0,12.0,20,0.00,,,0.00,Wunderground v.1.15,2013-04-06 18:10:00,
2013-04-06 11:15:00,69.8,26.9,30.26,SSE,156,7.0,13.0,20,0.00,,,0.00,Wunderground v.1.15,2013-04-06 18:15:00,
2013-04-06 11:25:00,70.7,27.6,30.26,SSE,148,7.0,12.0,20,0.00,,,0.00,Wunderground v.1.15,2013-04-06 18:25:00,
2013-04-06 11:35:00,69.9,27.0,30.26,SSE,168,8.0,8.0,20,0.00,,,0.00,Wunderground v.1.15,2013-04-06 18:35:00,
2013-04-06 11:45:00,70.3,27.3,30.26,South,178,6.0,18.0,20,0.00,,,0.00,Wunderground v.1.15,2013-04-06 18:45:00,
2013-04-06 11:50:00,70.3,27.3,30.25,South,182,6.0,18.0,20,0.00,,,0.00,Wunderground v.1.15,2013-04-06 18:50:00,
2013-04-06 12:00:00,70.8,27.7,30.25,SSE,166,6.0,18.0,20,0.00,,,0.00,Wunderground v.1.15,2013-04-06 19:00:00,
2013-04-06 12:05:00,70.8,27.7,30.25,South,185,7.0,18.0,20,0.00,,,0.00,Wunderground v.1.15,2013-04-06 19:05:00,
2013-04-06 12:15:00,70.7,27.6,30.25,SE,130,7.0,14.0,20,0.00,,,0.00,Wunderground v.1.15,2013-04-06 19:15:00,
2013-04-06 12:25:00,71.5,28.3,30.24,South,175,7.0,14.0,20,0.00,,,0.00,Wunderground v.1.15,2013-04-06 19:25:00,
2013-04-06 12:30:00,71.3,28.1,30.24,South,175,7.0,14.0,20,0.00,,,0.00,Wunderground v.1.15,2013-04-06 19:30:00,
2013-04-06 12:35:00,71.9,28.6,30.24,SE,128,6.0,15.0,20,0.00,,,0.00,Wunderground v.1.15,2013-04-06 19:35:00,
2013-04-06 12:45:00,72.2,28.9,30.24,SSE,153,7.0,11.0,20,0.00,,,0.00,Wunderground v.1.15,2013-04-06 19:45:00,
2013-04-06 12:50:00,71.7,28.5,30.23,SE,128,6.0,6.0,20,0.00,,,0.00,Wunderground v.1.15,2013-04-06 19:50:00,
2013-04-06 13:00:00,72.6,27.9,30.23,SSE,163,5.0,5.0,19,0.00,,,0.00,Wunderground v.1.15,2013-04-06 20:00:00,
2013-04-06 13:05:00,72.5,27.9,30.23,SSE,154,6.0,10.0,19,0.00,,,0.00,Wunderground v.1.15,2013-04-06 20:05:00,
2013-04-06 13:10:00,72.4,29.0,30.22,South,170,7.0,16.0,20,0.00,,,0.00,Wunderground v.1.15,2013-04-06 20:10:00,
2013-04-06 13:15:00,72.6,29.2,30.22,SSE,150,7.0,16.0,20,0.00,,,0.00,Wunderground v.1.15,2013-04-06 20:15:00,
2013-04-06 13:25:00,72.3,29.0,30.22,South,182,8.0,16.0,20,0.00,,,0.00,Wunderground v.1.15,2013-04-06 20:25:00,
2013-04-06 13:30:00,73.0,29.5,30.21,SSE,162,8.0,16.0,20,0.00,,,0.00,Wunderground v.1.15,2013-04-06 20:30:00,
2013-04-06 13:35:00,72.6,29.2,30.21,SSE,152,7.0,16.0,20,0.00,,,0.00,Wunderground v.1.15,2013-04-06 20:35:00,
2013-04-06 13:45:00,72.6,29.2,30.21,SSE,162,7.0,16.0,20,0.00,,,0.00,Wunderground v.1.15,2013-04-06 20:45:00,
2013-04-06 13:50:00,72.9,28.2,30.21,SSW,195,7.0,16.0,19,0.00,,,0.00,Wunderground v.1.15,2013-04-06 20:50:00,
2013-04-06 14:00:00,73.2,28.4,30.21,South,169,7.0,16.0,19,0.00,,,0.00,Wunderground v.1.15,2013-04-06 21:00:00,
2013-04-06 14:05:00,73.3,28.5,30.20,SSE,151,7.0,16.0,19,0.00,,,0.00,Wunderground v.1.15,2013-04-06 21:05:00,
2013-04-06 14:15:00,73.1,29.6,30.20,SE,124,6.0,16.0,20,0.00,,,0.00,Wunderground v.1.15,2013-04-06 21:15:00,
2013-04-06 14:20:00,73.2,32.1,30.19,ENE,59,6.0,6.0,22,0.00,,,0.00,Wunderground v.1.15,2013-04-06 21:20:00,
2013-04-06 14:25:00,73.4,33.3,30.20,ENE,64,6.0,16.0,23,0.00,,,0.00,Wunderground v.1.15,2013-04-06 21:25:00,
2013-04-06 14:35:00,73.8,32.6,30.20,WNW,293,5.0,17.0,22,0.00,,,0.00,Wunderground v.1.15,2013-04-06 21:35:00,
2013-04-06 14:45:00,73.7,32.5,30.20,NNW,345,7.0,17.0,22,0.00,,,0.00,Wunderground v.1.15,2013-04-06 21:45:00,
2013-04-06 14:50:00,73.1,32.0,30.19,NE,38,6.0,6.0,22,0.00,,,0.00,Wunderground v.1.15,2013-04-06 21:50:00,
2013-04-06 15:00:00,73.0,34.1,30.19,NNW,336,5.0,17.0,24,0.00,,,0.00,Wunderground v.1.15,2013-04-06 22:00:00,
2013-04-06 15:05:00,72.8,33.9,30.19,NNW,341,7.0,17.0,24,0.00,,,0.00,Wunderground v.1.15,2013-04-06 22:05:00,
2013-04-06 15:15:00,73.0,33.0,30.18,NNW,329,6.0,14.0,23,0.00,,,0.00,Wunderground v.1.15,2013-04-06 22:15:00,
2013-04-06 15:20:00,72.9,32.9,30.18,NW,324,4.0,14.0,23,0.00,,,0.00,Wunderground v.1.15,2013-04-06 22:20:00,
2013-04-06 15:30:00,73.1,32.0,30.18,NE,50,3.0,3.0,22,0.00,,,0.00,Wunderground v.1.15,2013-04-06 22:30:00,
2013-04-06 15:40:00,73.0,29.5,30.18,East,94,5.0,12.0,20,0.00,,,0.00,Wunderground v.1.15,2013-04-06 22:40:00,
2013-04-06 15:45:00,73.1,29.6,30.17,ESE,103,8.0,12.0,20,0.00,,,0.00,Wunderground v.1.15,2013-04-06 22:45:00,
2013-04-06 15:50:00,73.2,28.4,30.17,ESE,102,7.0,12.0,19,0.00,,,0.00,Wunderground v.1.15,2013-04-06 22:50:00,
2013-04-06 16:00:00,72.9,28.2,30.17,East,94,8.0,8.0,19,0.00,,,0.00,Wunderground v.1.15,2013-04-06 23:00:00,
2013-04-06 16:05:00,72.9,28.2,30.16,East,94,9.0,9.0,19,0.00,,,0.00,Wunderground v.1.15,2013-04-06 23:05:00,
2013-04-06 16:15:00,73.3,28.5,30.16,ESE,113,8.0,16.0,19,0.00,,,0.00,Wunderground v.1.15,2013-04-06 23:15:00,
2013-04-06 16:20:00,73.0,29.5,30.16,SE,138,8.0,16.0,20,0.00,,,0.00,Wunderground v.1.15,2013-04-06 23:20:00,
2013-04-06 16:30:00,72.9,29.4,30.16,ESE,117,8.0,8.0,20,0.00,,,0.00,Wunderground v.1.15,2013-04-06 23:30:00,
2013-04-06 16:35:00,72.9,29.4,30.16,ESE,105,6.0,16.0,20,0.00,,,0.00,Wunderground v.1.15,2013-04-06 23:35:00,
2013-04-06 16:45:00,73.1,30.8,30.16,ESE,108,6.0,7.0,21,0.00,,,0.00,Wunderground v.1.15,2013-04-06 23:45:00,
2013-04-06 16:50:00,73.0,30.7,30.15,ESE,112,7.0,16.0,21,0.00,,,0.00,Wunderground v.1.15,2013-04-06 23:50:00,
2013-04-06 16:55:00,72.9,30.6,30.15,SSE,155,7.0,16.0,21,0.00,,,0.00,Wunderground v.1.15,2013-04-06 23:55:00,
2013-04-06 17:10:00,73.0,31.9,30.15,SE,127,8.0,13.0,22,0.00,,,0.00,Wunderground v.1.15,2013-04-07 00:10:00,
2013-04-06 17:15:00,72.4,32.5,30.15,East,94,8.0,13.0,23,0.00,,,0.00,Wunderground v.1.15,2013-04-07 00:15:00,
2013-04-06 17:20:00,72.1,32.2,30.15,SSE,158,7.0,13.0,23,0.00,,,0.00,Wunderground v.1.15,2013-04-07 00:20:00,
2013-04-06 17:30:00,72.9,31.8,30.15,ENE,77,8.0,8.0,22,0.00,,,0.00,Wunderground v.1.15,2013-04-07 00:30:00,
2013-04-06 17:35:00,72.9,32.9,30.15,South,177,5.0,15.0,23,0.00,,,0.00,Wunderground v.1.15,2013-04-07 00:35:00,
2013-04-06 17:45:00,73.4,39.2,30.16,NW,322,2.0,15.0,29,0.00,,,0.00,Wunderground v.1.15,2013-04-07 00:45:00,
2013-04-06 17:50:00,73.0,38.0,30.15,North,353,4.0,15.0,28,0.00,,,0.00,Wunderground v.1.15,2013-04-07 00:50:00,
2013-04-06 18:00:00,72.5,39.3,30.15,North,2,4.0,4.0,30,0.00,,,0.00,Wunderground v.1.15,2013-04-07 01:00:00,
2013-04-06 18:05:00,72.1,39.8,30.15,NNE,22,4.0,12.0,31,0.00,,,0.00,Wunderground v.1.15,2013-04-07 01:05:00,
2013-04-06 18:15:00,72.0,39.7,30.15,NNW,337,1.0,12.0,31,0.00,,,0.00,Wunderground v.1.15,2013-04-07 01:15:00,
2013-04-06 18:20:00,71.6,40.2,30.14,NW,324,3.0,12.0,32,0.00,,,0.00,Wunderground v.1.15,2013-04-07 01:20:00,
2013-04-06 18:25:00,71.1,40.5,30.15,NNW,337,5.0,12.0,33,0.00,,,0.00,Wunderground v.1.15,2013-04-07 01:25:00,
2013-04-06 18:35:00,70.0,40.3,30.15,NNW,333,6.0,12.0,34,0.00,,,0.00,Wunderground v.1.15,2013-04-07 01:35:00,
2013-04-06 18:45:00,69.5,40.6,30.15,NW,310,5.0,11.0,35,0.00,,,0.00,Wunderground v.1.15,2013-04-07 01:45:00,
2013-04-06 18:50:00,69.1,41.0,30.15,NW,317,3.0,3.0,36,0.00,,,0.00,Wunderground v.1.15,2013-04-07 01:50:00,
2013-04-06 19:00:00,68.3,41.0,30.15,NW,317,0.0,11.0,37,0.00,,,0.00,Wunderground v.1.15,2013-04-07 02:00:00,
2013-04-06 19:05:00,67.9,41.3,30.15,NW,317,0.0,11.0,38,0.00,,,0.00,Wunderground v.1.15,2013-04-07 02:05:00,
2013-04-06 19:15:00,67.3,41.5,30.15,NW,317,0.0,9.0,39,0.00,,,0.00,Wunderground v.1.15,2013-04-07 02:15:00,
2013-04-06 19:20:00,67.1,36.2,30.15,East,101,0.0,9.0,32,0.00,,,0.00,Wunderground v.1.15,2013-04-07 02:20:00,
2013-04-06 19:30:00,67.1,37.8,30.15,East,84,1.0,1.0,34,0.00,,,0.00,Wunderground v.1.15,2013-04-07 02:30:00,
2013-04-06 19:40:00,66.5,39.4,30.16,NNE,16,1.0,1.0,37,0.00,,,0.00,Wunderground v.1.15,2013-04-07 02:40:00,
2013-04-06 19:50:00,65.6,41.9,30.15,North,360,0.0,7.0,42,0.00,,,0.00,Wunderground v.1.15,2013-04-07 02:50:00,
2013-04-06 20:00:00,64.3,41.9,30.15,North,360,0.0,7.0,44,0.00,,,0.00,Wunderground v.1.15,2013-04-07 03:00:00,
2013-04-06 20:05:00,63.9,41.5,30.16,North,360,0.0,7.0,44,0.00,,,0.00,Wunderground v.1.15,2013-04-07 03:05:00,
2013-04-06 20:15:00,63.0,41.3,30.16,North,360,0.0,4.0,45,0.00,,,0.00,Wunderground v.1.15,2013-04-07 03:15:00,
2013-04-06 20:20:00,62.7,39.3,30.16,North,359,0.0,4.0,42,0.00,,,0.00,Wunderground v.1.15,2013-04-07 03:20:00,
2013-04-06 20:30:00,62.7,35.3,30.16,NW,316,0.0,4.0,36,0.00,,,0.00,Wunderground v.1.15,2013-04-07 03:30:00,
2013-04-06 20:35:00,62.8,35.4,30.16,WNW,301,1.0,6.0,36,0.00,,,0.00,Wunderground v.1.15,2013-04-07 03:35:00,
2013-04-06 20:45:00,63.0,35.6,30.16,WNW,292,1.0,6.0,36,0.00,,,0.00,Wunderground v.1.15,2013-04-07 03:45:00,
2013-04-06 20:50:00,62.6,35.3,30.17,WNW,291,0.0,6.0,36,0.00,,,0.00,Wunderground v.1.15,2013-04-07 03:50:00,
2013-04-06 21:00:00,62.1,34.8,30.16,West,273,1.0,1.0,36,0.00,,,0.00,Wunderground v.1.15,2013-04-07 04:00:00,
2013-04-06 21:05:00,62.3,34.3,30.17,West,271,2.0,3.0,35,0.00,,,0.00,Wunderground v.1.15,2013-04-07 04:05:00,
2013-04-06 21:10:00,62.4,34.4,30.17,West,271,1.0,1.0,35,0.00,,,0.00,Wunderground v.1.15,2013-04-07 04:10:00,
2013-04-06 21:15:00,62.2,34.2,30.17,West,271,0.0,6.0,35,0.00,,,0.00,Wunderground v.1.15,2013-04-07 04:15:00,
2013-04-06 21:20:00,61.8,33.8,30.18,West,271,0.0,6.0,35,0.00,,,0.00,Wunderground v.1.15,2013-04-07 04:20:00,
2013-04-06 21:30:00,61.3,33.4,30.18,SW,234,0.0,6.0,35,0.00,,,0.00,Wunderground v.1.15,2013-04-07 04:30:00,
2013-04-06 21:35:00,60.8,33.7,30.18,SW,231,1.0,6.0,36,0.00,,,0.00,Wunderground v.1.15,2013-04-07 04:35:00,
2013-04-06 21:45:00,60.4,34.0,30.18,SW,231,0.0,5.0,37,0.00,,,0.00,Wunderground v.1.15,2013-04-07 04:45:00,
2013-04-06 21:50:00,60.5,34.1,30.18,SW,231,0.0,5.0,37,0.00,,,0.00,Wunderground v.1.15,2013-04-07 04:50:00,
2013-04-06 21:55:00,60.5,34.1,30.18,SW,231,0.0,5.0,37,0.00,,,0.00,Wunderground v.1.15,2013-04-07 04:55:00,
2013-04-06 22:00:00,60.4,34.0,30.18,SW,231,0.0,5.0,37,0.00,,,0.00,Wunderground v.1.15,2013-04-07 05:00:00,
2013-04-06 22:10:00,60.1,33.7,30.17,WSW,238,1.0,1.0,37,0.00,,,0.00,Wunderground v.1.15,2013-04-07 05:10:00,
2013-04-06 22:20:00,59.0,34.1,30.17,WSW,238,0.0,4.0,39,0.00,,,0.00,Wunderground v.1.15,2013-04-07 05:20:00,
2013-04-06 22:30:00,58.6,33.7,30.17,WSW,238,0.0,4.0,39,0.00,,,0.00,Wunderground v.1.15,2013-04-07 05:30:00,
2013-04-06 22:35:00,58.6,33.7,30.17,WSW,238,0.0,6.0,39,0.00,,,0.00,Wunderground v.1.15,2013-04-07 05:35:00,
2013-04-06 22:40:00,58.9,34.0,30.17,WSW,238,0.0,6.0,39,0.00,,,0.00,Wunderground v.1.15,2013-04-07 05:40:00,
2013-04-06 22:45:00,58.9,34.0,30.17,WSW,238,0.0,6.0,39,0.00,,,0.00,Wunderground v.1.15,2013-04-07 05:45:00,
2013-04-06 22:50:00,58.9,33.3,30.17,WSW,238,0.0,6.0,38,0.00,,,0.00,Wunderground v.1.15,2013-04-07 05:50:00,
2013-04-06 23:00:00,58.8,33.2,30.17,WSW,238,0.0,6.0,38,0.00,,,0.00,Wunderground v.1.15,2013-04-07 06:00:00,
2013-04-06 23:05:00,58.7,33.8,30.17,SSW,212,0.0,6.0,39,0.00,,,0.00,Wunderground v.1.15,2013-04-07 06:05:00,
2013-04-06 23:10:00,58.7,33.1,30.17,SSW,212,0.0,6.0,38,0.00,,,0.00,Wunderground v.1.15,2013-04-07 06:10:00,
2013-04-06 23:20:00,58.8,33.2,30.17,SSW,212,0.0,6.0,38,0.00,,,0.00,Wunderground v.1.15,2013-04-07 06:20:00,
2013-04-06 23:30:00,58.5,33.6,30.18,SSW,212,0.0,6.0,39,0.00,,,0.00,Wunderground v.1.15,2013-04-07 06:30:00,
2013-04-06 23:35:00,58.0,33.2,30.18,SSW,212,0.0,6.0,39,0.00,,,0.00,Wunderground v.1.15,2013-04-07 06:35:00,
2013-04-06 23:40:00,57.7,33.5,30.18,SSW,212,0.0,4.0,40,0.00,,,0.00,Wunderground v.1.15,2013-04-07 06:40:00,
2013-04-06 23:50:00,56.9,33.4,30.18,SSW,212,0.0,4.0,41,0.00,,,0.00,Wunderground v.1.15,2013-04-07 06:50:00,
2013-04-06 23:55:00,56.6,33.8,30.18,SSW,212,0.0,4.0,42,0.00,,,0.00,Wunderground v.1.15,2013-04-07 06:55:00,